sensor_id;sensor_type;location;lat;lon;timestamp;P1;durP1;ratioP1;P2;durP2;ratioP2
40367;SDS011;26075;43.320;21.920;2024-03-23T00:56:57;31.17;;;19.02;;
40367;SDS011;26075;43.320;21.920;2024-03-23T01:01:58;36.22;;;22.55;;
40367;SDS011;26075;43.320;21.920;2024-03-23T01:06:59;40.28;;;24.67;;
40367;SDS011;26075;43.320;21.920;2024-03-23T01:12:00;40.25;;;23.63;;
40367;SDS011;26075;43.320;21.920;2024-03-23T01:17:02;32.92;;;20.23;;
40367;SDS011;26075;43.320;21.920;2024-03-23T01:22:03;31.63;;;20.65;;
40367;SDS011;26075;43.320;21.920;2024-03-23T01:27:04;31.35;;;20.65;;
40367;SDS011;26075;43.320;21.920;2024-03-23T01:32:05;34.13;;;21.33;;
40367;SDS011;26075;43.320;21.920;2024-03-23T01:37:06;34.97;;;21.23;;
40367;SDS011;26075;43.320;21.920;2024-03-23T01:42:07;33.65;;;21.08;;
40367;SDS011;26075;43.320;21.920;2024-03-23T01:47:08;27.67;;;19.50;;
40367;SDS011;26075;43.320;21.920;2024-03-23T01:52:09;32.60;;;18.88;;
40367;SDS011;26075;43.320;21.920;2024-03-23T01:57:10;36.15;;;18.80;;
40367;SDS011;26075;43.320;21.920;2024-03-23T02:02:13;38.60;;;20.42;;
40367;SDS011;26075;43.320;21.920;2024-03-23T02:07:17;37.53;;;20.35;;
40367;SDS011;26075;43.320;21.920;2024-03-23T02:12:18;31.70;;;19.70;;
40367;SDS011;26075;43.320;21.920;2024-03-23T02:17:21;32.15;;;19.85;;
40367;SDS011;26075;43.320;21.920;2024-03-23T02:22:22;35.38;;;19.48;;
40367;SDS011;26075;43.320;21.920;2024-03-23T02:27:24;42.67;;;21.42;;
40367;SDS011;26075;43.320;21.920;2024-03-23T02:32:25;27.45;;;18.17;;
40367;SDS011;26075;43.320;21.920;2024-03-23T02:37:26;20.33;;;14.32;;
40367;SDS011;26075;43.320;21.920;2024-03-23T02:42:27;22.42;;;14.43;;
40367;SDS011;26075;43.320;21.920;2024-03-23T02:47:28;22.08;;;13.30;;
40367;SDS011;26075;43.320;21.920;2024-03-23T02:52:29;21.85;;;13.32;;
40367;SDS011;26075;43.320;21.920;2024-03-23T02:57:30;22.63;;;13.40;;
40367;SDS011;26075;43.320;21.920;2024-03-23T03:02:31;17.75;;;11.77;;
40367;SDS011;26075;43.320;21.920;2024-03-23T03:07:32;20.60;;;12.00;;
40367;SDS011;26075;43.320;21.920;2024-03-23T03:12:33;21.75;;;11.90;;
40367;SDS011;26075;43.320;21.920;2024-03-23T03:17:34;17.90;;;10.77;;
40367;SDS011;26075;43.320;21.920;2024-03-23T03:22:35;19.98;;;12.68;;
40367;SDS011;26075;43.320;21.920;2024-03-23T03:27:36;19.38;;;11.38;;
40367;SDS011;26075;43.320;21.920;2024-03-23T03:32:37;19.60;;;11.63;;
40367;SDS011;26075;43.320;21.920;2024-03-23T03:37:38;19.30;;;11.25;;
40367;SDS011;26075;43.320;21.920;2024-03-23T03:42:39;22.55;;;14.23;;
40367;SDS011;26075;43.320;21.920;2024-03-23T03:47:40;27.33;;;15.50;;
40367;SDS011;26075;43.320;21.920;2024-03-23T03:52:41;26.33;;;14.05;;
40367;SDS011;26075;43.320;21.920;2024-03-23T03:57:42;20.83;;;12.52;;
40367;SDS011;26075;43.320;21.920;2024-03-23T04:02:43;23.92;;;16.02;;
40367;SDS011;26075;43.320;21.920;2024-03-23T04:07:44;22.90;;;13.25;;
40367;SDS011;26075;43.320;21.920;2024-03-23T04:12:47;28.83;;;14.50;;
40367;SDS011;26075;43.320;21.920;2024-03-23T04:17:48;23.15;;;13.98;;
40367;SDS011;26075;43.320;21.920;2024-03-23T04:22:49;19.85;;;12.38;;
40367;SDS011;26075;43.320;21.920;2024-03-23T04:27:50;30.52;;;12.60;;
40367;SDS011;26075;43.320;21.920;2024-03-23T04:32:51;28.50;;;13.85;;
40367;SDS011;26075;43.320;21.920;2024-03-23T04:37:55;28.02;;;15.32;;
40367;SDS011;26075;43.320;21.920;2024-03-23T04:42:58;24.58;;;14.13;;
40367;SDS011;26075;43.320;21.920;2024-03-23T04:48:00;35.47;;;16.75;;
40367;SDS011;26075;43.320;21.920;2024-03-23T04:53:02;49.08;;;21.38;;
40367;SDS011;26075;43.320;21.920;2024-03-23T04:58:03;58.88;;;25.23;;
40367;SDS011;26075;43.320;21.920;2024-03-23T05:03:04;40.08;;;20.58;;
40367;SDS011;26075;43.320;21.920;2024-03-23T05:08:05;42.78;;;21.85;;
40367;SDS011;26075;43.320;21.920;2024-03-23T05:13:06;38.97;;;20.90;;
40367;SDS011;26075;43.320;21.920;2024-03-23T05:18:07;29.38;;;15.75;;
40367;SDS011;26075;43.320;21.920;2024-03-23T05:23:08;36.22;;;16.02;;
40367;SDS011;26075;43.320;21.920;2024-03-23T05:28:09;25.00;;;16.08;;
40367;SDS011;26075;43.320;21.920;2024-03-23T05:33:10;25.08;;;15.50;;
40367;SDS011;26075;43.320;21.920;2024-03-23T05:38:11;33.78;;;16.15;;
40367;SDS011;26075;43.320;21.920;2024-03-23T05:43:12;29.70;;;15.77;;
40367;SDS011;26075;43.320;21.920;2024-03-23T05:48:13;25.02;;;13.90;;
40367;SDS011;26075;43.320;21.920;2024-03-23T05:53:17;31.17;;;15.27;;
40367;SDS011;26075;43.320;21.920;2024-03-23T06:03:21;23.00;;;12.05;;
40367;SDS011;26075;43.320;21.920;2024-03-23T06:08:22;22.17;;;11.43;;
40367;SDS011;26075;43.320;21.920;2024-03-23T06:13:24;15.98;;;9.30;;
40367;SDS011;26075;43.320;21.920;2024-03-23T06:18:29;20.90;;;10.32;;
40367;SDS011;26075;43.320;21.920;2024-03-23T06:23:31;17.05;;;9.85;;
40367;SDS011;26075;43.320;21.920;2024-03-23T06:28:32;16.50;;;8.68;;
40367;SDS011;26075;43.320;21.920;2024-03-23T06:33:33;16.67;;;8.60;;
40367;SDS011;26075;43.320;21.920;2024-03-23T06:38:34;13.05;;;8.23;;
40367;SDS011;26075;43.320;21.920;2024-03-23T06:43:35;10.85;;;6.95;;
40367;SDS011;26075;43.320;21.920;2024-03-23T06:48:36;16.55;;;8.68;;
40367;SDS011;26075;43.320;21.920;2024-03-23T06:53:37;13.20;;;6.97;;
40367;SDS011;26075;43.320;21.920;2024-03-23T06:58:38;15.93;;;9.68;;
40367;SDS011;26075;43.320;21.920;2024-03-23T07:03:39;16.45;;;8.73;;
40367;SDS011;26075;43.320;21.920;2024-03-23T07:08:40;11.32;;;7.78;;
40367;SDS011;26075;43.320;21.920;2024-03-23T07:13:41;14.40;;;9.55;;
40367;SDS011;26075;43.320;21.920;2024-03-23T07:18:42;14.52;;;8.70;;
40367;SDS011;26075;43.320;21.920;2024-03-23T07:23:43;16.25;;;9.10;;
40367;SDS011;26075;43.320;21.920;2024-03-23T07:28:45;15.57;;;8.98;;
40367;SDS011;26075;43.320;21.920;2024-03-23T07:33:47;14.07;;;8.98;;
40367;SDS011;26075;43.320;21.920;2024-03-23T07:38:49;13.18;;;7.95;;
40367;SDS011;26075;43.320;21.920;2024-03-23T07:43:50;12.75;;;7.50;;
40367;SDS011;26075;43.320;21.920;2024-03-23T07:48:51;14.95;;;8.43;;
40367;SDS011;26075;43.320;21.920;2024-03-23T07:53:52;11.23;;;7.15;;
40367;SDS011;26075;43.320;21.920;2024-03-23T07:58:53;14.77;;;8.73;;
40367;SDS011;26075;43.320;21.920;2024-03-23T08:03:54;12.85;;;7.80;;
40367;SDS011;26075;43.320;21.920;2024-03-23T08:08:57;11.80;;;7.43;;
40367;SDS011;26075;43.320;21.920;2024-03-23T08:14:01;15.20;;;7.97;;
40367;SDS011;26075;43.320;21.920;2024-03-23T08:19:04;16.20;;;7.70;;
40367;SDS011;26075;43.320;21.920;2024-03-23T08:24:05;13.30;;;7.57;;
40367;SDS011;26075;43.320;21.920;2024-03-23T08:29:06;29.00;;;7.35;;
40367;SDS011;26075;43.320;21.920;2024-03-23T08:34:07;10.50;;;7.28;;
40367;SDS011;26075;43.320;21.920;2024-03-23T08:39:09;14.57;;;7.65;;
40367;SDS011;26075;43.320;21.920;2024-03-23T08:44:10;13.18;;;7.50;;
40367;SDS011;26075;43.320;21.920;2024-03-23T08:49:11;14.07;;;7.40;;
40367;SDS011;26075;43.320;21.920;2024-03-23T08:54:13;11.32;;;8.07;;
40367;SDS011;26075;43.320;21.920;2024-03-23T08:59:14;15.75;;;8.07;;
40367;SDS011;26075;43.320;21.920;2024-03-23T09:04:15;14.82;;;9.02;;
40367;SDS011;26075;43.320;21.920;2024-03-23T09:09:16;12.90;;;9.38;;
40367;SDS011;26075;43.320;21.920;2024-03-23T09:14:17;15.98;;;8.90;;
40367;SDS011;26075;43.320;21.920;2024-03-23T09:19:19;19.75;;;12.15;;
40367;SDS011;26075;43.320;21.920;2024-03-23T09:24:20;25.05;;;12.27;;
40367;SDS011;26075;43.320;21.920;2024-03-23T09:29:21;20.92;;;11.18;;
40367;SDS011;26075;43.320;21.920;2024-03-23T09:34:22;23.65;;;11.85;;
40367;SDS011;26075;43.320;21.920;2024-03-23T09:39:23;19.42;;;12.50;;
40367;SDS011;26075;43.320;21.920;2024-03-23T09:44:24;20.40;;;13.82;;
40367;SDS011;26075;43.320;21.920;2024-03-23T09:49:29;24.92;;;13.70;;
40367;SDS011;26075;43.320;21.920;2024-03-23T09:54:30;21.98;;;12.50;;
40367;SDS011;26075;43.320;21.920;2024-03-23T09:59:32;19.35;;;13.02;;
40367;SDS011;26075;43.320;21.920;2024-03-23T10:09:38;21.52;;;11.48;;
40367;SDS011;26075;43.320;21.920;2024-03-23T10:14:40;17.02;;;11.13;;
40367;SDS011;26075;43.320;21.920;2024-03-23T10:19:41;21.75;;;11.68;;
40367;SDS011;26075;43.320;21.920;2024-03-23T10:24:42;18.73;;;9.93;;
40367;SDS011;26075;43.320;21.920;2024-03-23T10:29:43;25.92;;;11.57;;
40367;SDS011;26075;43.320;21.920;2024-03-23T10:34:45;14.07;;;7.50;;
40367;SDS011;26075;43.320;21.920;2024-03-23T10:39:46;11.48;;;7.50;;
40367;SDS011;26075;43.320;21.920;2024-03-23T10:44:47;17.48;;;9.50;;
40367;SDS011;26075;43.320;21.920;2024-03-23T10:49:48;23.73;;;10.50;;
40367;SDS011;26075;43.320;21.920;2024-03-23T10:54:50;17.25;;;9.70;;
40367;SDS011;26075;43.320;21.920;2024-03-23T10:59:52;9.95;;;5.82;;
40367;SDS011;26075;43.320;21.920;2024-03-23T11:04:53;13.85;;;5.75;;
40367;SDS011;26075;43.320;21.920;2024-03-23T11:09:54;9.48;;;5.05;;
40367;SDS011;26075;43.320;21.920;2024-03-23T11:20:00;6.85;;;4.72;;
40367;SDS011;26075;43.320;21.920;2024-03-23T11:25:01;8.47;;;4.90;;
40367;SDS011;26075;43.320;21.920;2024-03-23T11:30:12;9.65;;;5.10;;
40367;SDS011;26075;43.320;21.920;2024-03-23T11:35:32;7.72;;;5.22;;
40367;SDS011;26075;43.320;21.920;2024-03-23T11:40:34;13.20;;;6.30;;
40367;SDS011;26075;43.320;21.920;2024-03-23T11:45:39;11.20;;;5.50;;
40367;SDS011;26075;43.320;21.920;2024-03-23T11:50:42;10.27;;;6.10;;
40367;SDS011;26075;43.320;21.920;2024-03-23T12:01:09;12.20;;;7.97;;
40367;SDS011;26075;43.320;21.920;2024-03-23T12:06:05;9.48;;;6.63;;
40367;SDS011;26075;43.320;21.920;2024-03-23T12:11:11;13.10;;;7.32;;
40367;SDS011;26075;43.320;21.920;2024-03-23T12:16:17;9.57;;;5.95;;
40367;SDS011;26075;43.320;21.920;2024-03-23T12:21:20;10.43;;;5.57;;
40367;SDS011;26075;43.320;21.920;2024-03-23T12:26:22;9.85;;;6.13;;
40367;SDS011;26075;43.320;21.920;2024-03-23T12:31:23;10.88;;;5.57;;
40367;SDS011;26075;43.320;21.920;2024-03-23T12:36:25;13.02;;;6.10;;
40367;SDS011;26075;43.320;21.920;2024-03-23T12:41:25;8.88;;;5.50;;
40367;SDS011;26075;43.320;21.920;2024-03-23T12:46:26;13.13;;;5.55;;
40367;SDS011;26075;43.320;21.920;2024-03-23T12:51:28;11.57;;;5.60;;
40367;SDS011;26075;43.320;21.920;2024-03-23T12:56:29;10.82;;;5.82;;
40367;SDS011;26075;43.320;21.920;2024-03-23T13:01:33;9.63;;;4.93;;
40367;SDS011;26075;43.320;21.920;2024-03-23T13:06:34;11.32;;;5.20;;
40367;SDS011;26075;43.320;21.920;2024-03-23T13:11:35;11.25;;;5.32;;
40367;SDS011;26075;43.320;21.920;2024-03-23T13:16:36;7.28;;;4.68;;
40367;SDS011;26075;43.320;21.920;2024-03-23T13:21:37;13.57;;;6.60;;
40367;SDS011;26075;43.320;21.920;2024-03-23T13:26:38;9.13;;;4.93;;
40367;SDS011;26075;43.320;21.920;2024-03-23T13:31:39;8.52;;;4.80;;
40367;SDS011;26075;43.320;21.920;2024-03-23T13:36:40;10.30;;;5.57;;
40367;SDS011;26075;43.320;21.920;2024-03-23T13:41:42;10.68;;;4.60;;
40367;SDS011;26075;43.320;21.920;2024-03-23T13:46:43;7.82;;;4.45;;
40367;SDS011;26075;43.320;21.920;2024-03-23T13:51:46;6.85;;;4.03;;
40367;SDS011;26075;43.320;21.920;2024-03-23T13:56:48;8.25;;;4.65;;
40367;SDS011;26075;43.320;21.920;2024-03-23T14:01:49;7.00;;;4.40;;
40367;SDS011;26075;43.320;21.920;2024-03-23T14:06:51;8.15;;;4.43;;
40367;SDS011;26075;43.320;21.920;2024-03-23T14:11:52;7.90;;;4.90;;
40367;SDS011;26075;43.320;21.920;2024-03-23T14:16:53;8.15;;;5.07;;
40367;SDS011;26075;43.320;21.920;2024-03-23T14:21:54;9.02;;;4.03;;
40367;SDS011;26075;43.320;21.920;2024-03-23T14:26:55;9.85;;;4.30;;
40367;SDS011;26075;43.320;21.920;2024-03-23T14:31:56;12.80;;;4.15;;
40367;SDS011;26075;43.320;21.920;2024-03-23T14:36:57;9.07;;;3.78;;
40367;SDS011;26075;43.320;21.920;2024-03-23T14:41:58;8.93;;;4.80;;
40367;SDS011;26075;43.320;21.920;2024-03-23T14:46:59;7.78;;;4.50;;
40367;SDS011;26075;43.320;21.920;2024-03-23T14:52:00;9.00;;;4.55;;
40367;SDS011;26075;43.320;21.920;2024-03-23T14:57:01;7.07;;;4.18;;
40367;SDS011;26075;43.320;21.920;2024-03-23T15:02:03;11.20;;;5.82;;
40367;SDS011;26075;43.320;21.920;2024-03-23T15:07:04;7.93;;;4.57;;
40367;SDS011;26075;43.320;21.920;2024-03-23T15:12:06;10.27;;;5.35;;
40367;SDS011;26075;43.320;21.920;2024-03-23T15:17:07;10.90;;;5.45;;
40367;SDS011;26075;43.320;21.920;2024-03-23T15:22:09;7.43;;;4.45;;
40367;SDS011;26075;43.320;21.920;2024-03-23T15:27:10;8.02;;;4.55;;
40367;SDS011;26075;43.320;21.920;2024-03-23T15:32:11;17.58;;;5.25;;
40367;SDS011;26075;43.320;21.920;2024-03-23T15:37:14;7.78;;;4.68;;
40367;SDS011;26075;43.320;21.920;2024-03-23T15:42:15;15.93;;;5.20;;
40367;SDS011;26075;43.320;21.920;2024-03-23T15:47:16;7.57;;;4.80;;
40367;SDS011;26075;43.320;21.920;2024-03-23T15:52:17;8.30;;;3.97;;
40367;SDS011;26075;43.320;21.920;2024-03-23T15:57:18;11.45;;;5.30;;
40367;SDS011;26075;43.320;21.920;2024-03-23T16:02:19;10.35;;;5.22;;
40367;SDS011;26075;43.320;21.920;2024-03-23T16:07:21;7.82;;;4.97;;
40367;SDS011;26075;43.320;21.920;2024-03-23T16:12:22;8.38;;;4.55;;
40367;SDS011;26075;43.320;21.920;2024-03-23T16:17:23;14.25;;;5.88;;
40367;SDS011;26075;43.320;21.920;2024-03-23T16:22:24;8.55;;;5.63;;
40367;SDS011;26075;43.320;21.920;2024-03-23T16:27:25;9.45;;;5.95;;
40367;SDS011;26075;43.320;21.920;2024-03-23T16:32:26;10.43;;;6.45;;
40367;SDS011;26075;43.320;21.920;2024-03-23T16:37:29;11.30;;;5.85;;
40367;SDS011;26075;43.320;21.920;2024-03-23T16:42:30;10.68;;;5.40;;
40367;SDS011;26075;43.320;21.920;2024-03-23T16:47:31;12.05;;;6.75;;
40367;SDS011;26075;43.320;21.920;2024-03-23T16:52:33;14.38;;;8.93;;
40367;SDS011;26075;43.320;21.920;2024-03-23T16:57:37;18.02;;;8.32;;
40367;SDS011;26075;43.320;21.920;2024-03-23T17:02:38;16.02;;;8.40;;
40367;SDS011;26075;43.320;21.920;2024-03-23T17:07:39;15.55;;;10.27;;
40367;SDS011;26075;43.320;21.920;2024-03-23T17:12:40;14.45;;;8.70;;
40367;SDS011;26075;43.320;21.920;2024-03-23T17:17:41;16.35;;;9.90;;
40367;SDS011;26075;43.320;21.920;2024-03-23T17:22:42;22.77;;;12.18;;
40367;SDS011;26075;43.320;21.920;2024-03-23T17:27:43;21.58;;;12.18;;
40367;SDS011;26075;43.320;21.920;2024-03-23T17:32:44;24.38;;;15.45;;
40367;SDS011;26075;43.320;21.920;2024-03-23T17:37:45;24.75;;;16.73;;
40367;SDS011;26075;43.320;21.920;2024-03-23T17:42:46;26.38;;;15.90;;
40367;SDS011;26075;43.320;21.920;2024-03-23T17:47:47;30.23;;;15.32;;
40367;SDS011;26075;43.320;21.920;2024-03-23T17:52:51;24.00;;;12.27;;
40367;SDS011;26075;43.320;21.920;2024-03-23T17:57:52;18.95;;;12.50;;
40367;SDS011;26075;43.320;21.920;2024-03-23T18:02:53;23.38;;;13.40;;
40367;SDS011;26075;43.320;21.920;2024-03-23T18:07:54;19.67;;;10.88;;
40367;SDS011;26075;43.320;21.920;2024-03-23T18:12:55;18.65;;;11.80;;
40367;SDS011;26075;43.320;21.920;2024-03-23T18:17:56;20.15;;;12.27;;
40367;SDS011;26075;43.320;21.920;2024-03-23T18:22:57;17.92;;;10.88;;
40367;SDS011;26075;43.320;21.920;2024-03-23T18:27:58;17.20;;;10.38;;
40367;SDS011;26075;43.320;21.920;2024-03-23T18:32:59;19.15;;;10.40;;
40367;SDS011;26075;43.320;21.920;2024-03-23T18:38:00;14.25;;;9.63;;
40367;SDS011;26075;43.320;21.920;2024-03-23T18:43:01;23.60;;;8.27;;
40367;SDS011;26075;43.320;21.920;2024-03-23T18:48:02;17.15;;;9.73;;
40367;SDS011;26075;43.320;21.920;2024-03-23T18:53:03;16.52;;;9.88;;
40367;SDS011;26075;43.320;21.920;2024-03-23T18:58:04;17.33;;;9.95;;
40367;SDS011;26075;43.320;21.920;2024-03-23T19:03:05;21.10;;;12.60;;
40367;SDS011;26075;43.320;21.920;2024-03-23T19:08:07;19.52;;;11.15;;
40367;SDS011;26075;43.320;21.920;2024-03-23T19:13:08;13.85;;;9.60;;
40367;SDS011;26075;43.320;21.920;2024-03-23T19:18:09;15.63;;;10.05;;
40367;SDS011;26075;43.320;21.920;2024-03-23T19:23:10;19.27;;;9.00;;
40367;SDS011;26075;43.320;21.920;2024-03-23T19:28:11;19.45;;;11.57;;
40367;SDS011;26075;43.320;21.920;2024-03-23T19:33:14;17.70;;;10.10;;
40367;SDS011;26075;43.320;21.920;2024-03-23T19:38:15;19.10;;;9.05;;
40367;SDS011;26075;43.320;21.920;2024-03-23T19:43:16;14.30;;;7.68;;
40367;SDS011;26075;43.320;21.920;2024-03-23T19:48:17;14.07;;;8.88;;
40367;SDS011;26075;43.320;21.920;2024-03-23T19:53:18;17.13;;;8.65;;
40367;SDS011;26075;43.320;21.920;2024-03-23T19:58:19;18.10;;;8.52;;
40367;SDS011;26075;43.320;21.920;2024-03-23T20:03:20;20.83;;;7.70;;
40367;SDS011;26075;43.320;21.920;2024-03-23T20:08:21;19.80;;;9.98;;
40367;SDS011;26075;43.320;21.920;2024-03-23T20:13:22;15.38;;;8.18;;
40367;SDS011;26075;43.320;21.920;2024-03-23T20:18:24;19.95;;;8.60;;
40367;SDS011;26075;43.320;21.920;2024-03-23T20:23:26;14.57;;;7.28;;
40367;SDS011;26075;43.320;21.920;2024-03-23T20:28:27;12.75;;;7.53;;
40367;SDS011;26075;43.320;21.920;2024-03-23T20:33:28;15.10;;;7.95;;
40367;SDS011;26075;43.320;21.920;2024-03-23T20:38:29;15.82;;;8.02;;
40367;SDS011;26075;43.320;21.920;2024-03-23T20:43:30;14.80;;;8.32;;
40367;SDS011;26075;43.320;21.920;2024-03-23T20:48:31;13.32;;;8.23;;
40367;SDS011;26075;43.320;21.920;2024-03-23T20:53:34;16.35;;;8.43;;
40367;SDS011;26075;43.320;21.920;2024-03-23T20:58:36;16.27;;;9.18;;
40367;SDS011;26075;43.320;21.920;2024-03-23T21:03:38;15.50;;;8.43;;
40367;SDS011;26075;43.320;21.920;2024-03-23T21:08:39;12.07;;;7.72;;
40367;SDS011;26075;43.320;21.920;2024-03-23T21:13:41;11.93;;;7.22;;
40367;SDS011;26075;43.320;21.920;2024-03-23T21:18:42;14.48;;;8.27;;
40367;SDS011;26075;43.320;21.920;2024-03-23T21:23:43;15.32;;;8.68;;
40367;SDS011;26075;43.320;21.920;2024-03-23T21:28:44;15.35;;;7.88;;
40367;SDS011;26075;43.320;21.920;2024-03-23T21:33:45;17.42;;;7.70;;
40367;SDS011;26075;43.320;21.920;2024-03-23T21:38:46;13.52;;;8.35;;
40367;SDS011;26075;43.320;21.920;2024-03-23T21:43:48;19.60;;;9.65;;
40367;SDS011;26075;43.320;21.920;2024-03-23T21:48:49;15.02;;;8.65;;
40367;SDS011;26075;43.320;21.920;2024-03-23T21:53:50;14.18;;;7.78;;
40367;SDS011;26075;43.320;21.920;2024-03-23T21:58:51;12.38;;;6.78;;
40367;SDS011;26075;43.320;21.920;2024-03-23T22:03:52;13.60;;;6.70;;
40367;SDS011;26075;43.320;21.920;2024-03-23T22:08:53;19.88;;;7.25;;
40367;SDS011;26075;43.320;21.920;2024-03-23T22:13:54;16.00;;;8.13;;
40367;SDS011;26075;43.320;21.920;2024-03-23T22:18:55;21.00;;;7.65;;
40367;SDS011;26075;43.320;21.920;2024-03-23T22:23:56;17.33;;;7.05;;
40367;SDS011;26075;43.320;21.920;2024-03-23T22:28:57;16.40;;;8.25;;
40367;SDS011;26075;43.320;21.920;2024-03-23T22:33:59;9.75;;;6.15;;
40367;SDS011;26075;43.320;21.920;2024-03-23T22:39:00;9.98;;;6.40;;
40367;SDS011;26075;43.320;21.920;2024-03-23T22:44:01;12.18;;;6.85;;
40367;SDS011;26075;43.320;21.920;2024-03-23T22:49:03;9.73;;;6.75;;
40367;SDS011;26075;43.320;21.920;2024-03-23T22:54:04;13.05;;;6.65;;
40367;SDS011;26075;43.320;21.920;2024-03-23T22:59:05;12.23;;;6.93;;
40367;SDS011;26075;43.320;21.920;2024-03-23T23:04:07;11.38;;;6.25;;
40367;SDS011;26075;43.320;21.920;2024-03-23T23:09:09;11.70;;;6.47;;
40367;SDS011;26075;43.320;21.920;2024-03-23T23:14:11;14.02;;;7.47;;
40367;SDS011;26075;43.320;21.920;2024-03-23T23:19:37;11.48;;;7.78;;
40367;SDS011;26075;43.320;21.920;2024-03-23T23:24:38;19.08;;;7.55;;
40367;SDS011;26075;43.320;21.920;2024-03-23T23:29:40;10.73;;;7.00;;
40367;SDS011;26075;43.320;21.920;2024-03-23T23:34:41;10.65;;;6.07;;
40367;SDS011;26075;43.320;21.920;2024-03-23T23:39:41;12.65;;;6.30;;
40367;SDS011;26075;43.320;21.920;2024-03-23T23:44:43;11.35;;;6.50;;
40367;SDS011;26075;43.320;21.920;2024-03-23T23:49:44;13.15;;;6.35;;
40367;SDS011;26075;43.320;21.920;2024-03-23T23:54:45;10.10;;;6.22;;
40367;SDS011;26075;43.320;21.920;2024-03-23T23:59:46;12.27;;;6.00;;
